sensor_id;sensor_type;location;lat;lon;timestamp;pressure;altitude;pressure_sealevel;temperature;humidity
74778;BME280;63298;53.164;8.610;2023-12-04T00:01:21;101920.50;;;0.26;79.72
74778;BME280;63298;53.164;8.610;2023-12-04T00:03:47;101920.50;;;0.26;80.30
74778;BME280;63298;53.164;8.610;2023-12-04T00:06:15;101914.38;;;0.24;79.99
74778;BME280;63298;53.164;8.610;2023-12-04T00:08:41;101900.22;;;0.20;79.47
74778;BME280;63298;53.164;8.610;2023-12-04T00:11:06;101900.09;;;0.22;79.70
74778;BME280;63298;53.164;8.610;2023-12-04T00:13:32;101890.66;;;0.16;80.38
74778;BME280;63298;53.164;8.610;2023-12-04T00:15:57;101889.38;;;0.20;80.04
74778;BME280;63298;53.164;8.610;2023-12-04T00:18:23;101882.94;;;0.21;79.59
74778;BME280;63298;53.164;8.610;2023-12-04T00:20:48;101871.41;;;0.19;79.96
74778;BME280;63298;53.164;8.610;2023-12-04T00:23:14;101869.69;;;0.18;79.91
74778;BME280;63298;53.164;8.610;2023-12-04T00:25:39;101861.41;;;0.20;79.85
74778;BME280;63298;53.164;8.610;2023-12-04T00:28:04;101862.41;;;0.19;79.63
74778;BME280;63298;53.164;8.610;2023-12-04T00:30:30;101866.66;;;0.21;79.74
74778;BME280;63298;53.164;8.610;2023-12-04T00:32:55;101855.13;;;0.19;79.84
74778;BME280;63298;53.164;8.610;2023-12-04T00:35:23;101852.25;;;0.21;79.98
74778;BME280;63298;53.164;8.610;2023-12-04T00:37:51;101832.59;;;0.09;79.29
74778;BME280;63298;53.164;8.610;2023-12-04T00:40:19;101849.69;;;0.19;79.43
74778;BME280;63298;53.164;8.610;2023-12-04T00:42:45;101851.25;;;0.22;79.48
74778;BME280;63298;53.164;8.610;2023-12-04T00:45:10;101846.28;;;0.17;79.55
74778;BME280;63298;53.164;8.610;2023-12-04T00:47:35;101847.00;;;0.19;79.71
74778;BME280;63298;53.164;8.610;2023-12-04T00:50:04;101840.84;;;0.17;79.27
74778;BME280;63298;53.164;8.610;2023-12-04T00:52:30;101844.53;;;0.16;79.15
74778;BME280;63298;53.164;8.610;2023-12-04T00:54:55;101836.56;;;0.15;78.67
74778;BME280;63298;53.164;8.610;2023-12-04T00:57:23;101835.56;;;0.16;79.55
74778;BME280;63298;53.164;8.610;2023-12-04T00:59:49;101835.41;;;0.17;79.50
74778;BME280;63298;53.164;8.610;2023-12-04T01:02:14;101816.16;;;0.11;79.06
74778;BME280;63298;53.164;8.610;2023-12-04T01:04:42;101828.28;;;0.16;79.32
74778;BME280;63298;53.164;8.610;2023-12-04T01:07:07;101824.56;;;0.17;79.31
74778;BME280;63298;53.164;8.610;2023-12-04T01:09:37;101827.41;;;0.16;79.33
74778;BME280;63298;53.164;8.610;2023-12-04T01:12:02;101818.28;;;0.17;79.52
74778;BME280;63298;53.164;8.610;2023-12-04T01:14:28;101824.44;;;0.19;79.04
74778;BME280;63298;53.164;8.610;2023-12-04T01:16:53;101816.28;;;0.19;79.02
74778;BME280;63298;53.164;8.610;2023-12-04T01:19:18;101813.72;;;0.17;79.44
74778;BME280;63298;53.164;8.610;2023-12-04T01:21:44;101806.84;;;0.23;79.38
74778;BME280;63298;53.164;8.610;2023-12-04T01:24:09;101804.69;;;0.26;79.19
74778;BME280;63298;53.164;8.610;2023-12-04T01:26:34;101796.31;;;0.20;79.59
74778;BME280;63298;53.164;8.610;2023-12-04T01:29:00;101809.13;;;0.27;79.29
74778;BME280;63298;53.164;8.610;2023-12-04T01:31:25;101794.56;;;0.28;79.32
74778;BME280;63298;53.164;8.610;2023-12-04T01:33:53;101802.41;;;0.31;79.36
74778;BME280;63298;53.164;8.610;2023-12-04T01:36:22;101788.28;;;0.28;79.21
74778;BME280;63298;53.164;8.610;2023-12-04T01:38:47;101790.84;;;0.29;79.19
74778;BME280;63298;53.164;8.610;2023-12-04T01:41:15;101798.56;;;0.34;79.21
74778;BME280;63298;53.164;8.610;2023-12-04T01:43:41;101785.84;;;0.25;79.18
74778;BME280;63298;53.164;8.610;2023-12-04T01:46:06;101796.41;;;0.28;79.31
74778;BME280;63298;53.164;8.610;2023-12-04T01:48:32;101797.97;;;0.30;79.30
74778;BME280;63298;53.164;8.610;2023-12-04T01:50:58;101787.13;;;0.30;79.22
74778;BME280;63298;53.164;8.610;2023-12-04T01:53:25;101779.72;;;0.23;79.08
74778;BME280;63298;53.164;8.610;2023-12-04T01:55:53;101779.28;;;0.27;79.64
74778;BME280;63298;53.164;8.610;2023-12-04T01:58:19;101763.59;;;0.21;78.95
74778;BME280;63298;53.164;8.610;2023-12-04T02:00:47;101775.72;;;0.27;79.44
74778;BME280;63298;53.164;8.610;2023-12-04T02:03:13;101776.25;;;0.30;79.38
74778;BME280;63298;53.164;8.610;2023-12-04T02:05:39;101763.44;;;0.23;79.50
74778;BME280;63298;53.164;8.610;2023-12-04T02:08:05;101771.69;;;0.31;79.22
74778;BME280;63298;53.164;8.610;2023-12-04T02:10:30;101753.59;;;0.22;79.17
74778;BME280;63298;53.164;8.610;2023-12-04T02:12:56;101756.31;;;0.22;78.93
74778;BME280;63298;53.164;8.610;2023-12-04T02:15:21;101771.69;;;0.31;79.82
74778;BME280;63298;53.164;8.610;2023-12-04T02:17:47;101767.13;;;0.31;79.35
74778;BME280;63298;53.164;8.610;2023-12-04T02:20:13;101760.56;;;0.34;79.45
74778;BME280;63298;53.164;8.610;2023-12-04T02:22:39;101747.72;;;0.26;79.57
74778;BME280;63298;53.164;8.610;2023-12-04T02:25:05;101756.69;;;0.36;79.23
74778;BME280;63298;53.164;8.610;2023-12-04T02:27:43;101744.84;;;0.37;79.43
74778;BME280;63298;53.164;8.610;2023-12-04T02:30:11;101743.84;;;0.38;79.48
74778;BME280;63298;53.164;8.610;2023-12-04T02:32:45;101733.97;;;0.37;79.14
74778;BME280;63298;53.164;8.610;2023-12-04T02:35:13;101744.69;;;0.39;79.63
74778;BME280;63298;53.164;8.610;2023-12-04T02:37:40;101729.41;;;0.38;79.35
74778;BME280;63298;53.164;8.610;2023-12-04T02:40:10;101722.97;;;0.39;79.36
74778;BME280;63298;53.164;8.610;2023-12-04T02:42:39;101727.38;;;0.40;79.33
74778;BME280;63298;53.164;8.610;2023-12-04T02:45:05;101705.44;;;0.33;79.52
74778;BME280;63298;53.164;8.610;2023-12-04T02:47:30;101715.06;;;0.46;79.22
74778;BME280;63298;53.164;8.610;2023-12-04T02:49:55;101712.53;;;0.44;79.23
74778;BME280;63298;53.164;8.610;2023-12-04T02:52:21;101708.25;;;0.41;79.16
74778;BME280;63298;53.164;8.610;2023-12-04T02:54:46;101691.00;;;0.33;79.20
74778;BME280;63298;53.164;8.610;2023-12-04T02:57:11;101705.84;;;0.38;80.02
74778;BME280;63298;53.164;8.610;2023-12-04T02:59:37;101707.25;;;0.42;79.77
74778;BME280;63298;53.164;8.610;2023-12-04T03:02:02;101683.72;;;0.33;79.59
74778;BME280;63298;53.164;8.610;2023-12-04T03:04:28;101691.88;;;0.33;80.25
74778;BME280;63298;53.164;8.610;2023-12-04T03:06:53;101685.44;;;0.34;79.87
74778;BME280;63298;53.164;8.610;2023-12-04T03:09:19;101683.72;;;0.33;80.17
74778;BME280;63298;53.164;8.610;2023-12-04T03:11:46;101685.53;;;0.42;80.16
74778;BME280;63298;53.164;8.610;2023-12-04T03:14:14;101672.28;;;0.39;80.01
74778;BME280;63298;53.164;8.610;2023-12-04T03:16:40;101677.84;;;0.38;80.12
74778;BME280;63298;53.164;8.610;2023-12-04T03:19:05;101666.69;;;0.41;80.22
74778;BME280;63298;53.164;8.610;2023-12-04T03:21:31;101674.81;;;0.41;80.47
74778;BME280;63298;53.164;8.610;2023-12-04T03:23:56;101669.41;;;0.41;80.18
74778;BME280;63298;53.164;8.610;2023-12-04T03:26:21;101663.13;;;0.40;80.11
74778;BME280;63298;53.164;8.610;2023-12-04T03:28:47;101660.81;;;0.46;79.79
74778;BME280;63298;53.164;8.610;2023-12-04T03:31:14;101658.53;;;0.41;80.08
74778;BME280;63298;53.164;8.610;2023-12-04T03:33:40;101652.25;;;0.40;80.34
74778;BME280;63298;53.164;8.610;2023-12-04T03:36:06;101649.72;;;0.39;80.52
74778;BME280;63298;53.164;8.610;2023-12-04T03:38:31;101641.72;;;0.37;80.46
74778;BME280;63298;53.164;8.610;2023-12-04T03:40:57;101648.00;;;0.38;80.03
74778;BME280;63298;53.164;8.610;2023-12-04T03:43:25;101641.72;;;0.37;80.52
74778;BME280;63298;53.164;8.610;2023-12-04T03:45:50;101641.59;;;0.39;80.15
74778;BME280;63298;53.164;8.610;2023-12-04T03:48:16;101643.25;;;0.40;80.91
74778;BME280;63298;53.164;8.610;2023-12-04T03:50:41;101635.56;;;0.35;80.73
74778;BME280;63298;53.164;8.610;2023-12-04T03:53:07;101640.53;;;0.40;80.53
74778;BME280;63298;53.164;8.610;2023-12-04T03:55:35;101639.81;;;0.48;80.47
74778;BME280;63298;53.164;8.610;2023-12-04T03:58:01;101642.13;;;0.42;81.34
74778;BME280;63298;53.164;8.610;2023-12-04T04:00:29;101638.41;;;0.43;80.85
74778;BME280;63298;53.164;8.610;2023-12-04T04:02:55;101631.28;;;0.42;80.72
74778;BME280;63298;53.164;8.610;2023-12-04T04:05:20;101622.88;;;0.36;80.39
74778;BME280;63298;53.164;8.610;2023-12-04T04:07:45;101624.25;;;0.40;80.98
74778;BME280;63298;53.164;8.610;2023-12-04T04:10:11;101609.31;;;0.36;80.41
74778;BME280;63298;53.164;8.610;2023-12-04T04:12:39;101619.25;;;0.45;80.69
74778;BME280;63298;53.164;8.610;2023-12-04T04:15:05;101625.38;;;0.47;80.81
74778;BME280;63298;53.164;8.610;2023-12-04T04:17:33;101617.25;;;0.47;80.50
74778;BME280;63298;53.164;8.610;2023-12-04T04:19:59;101613.66;;;0.47;81.37
74778;BME280;63298;53.164;8.610;2023-12-04T04:22:24;101602.09;;;0.44;80.63
74778;BME280;63298;53.164;8.610;2023-12-04T04:24:49;101599.56;;;0.43;81.23
74778;BME280;63298;53.164;8.610;2023-12-04T04:27:15;101602.81;;;0.47;80.92
74778;BME280;63298;53.164;8.610;2023-12-04T04:29:41;101587.84;;;0.42;80.63
74778;BME280;63298;53.164;8.610;2023-12-04T04:32:09;101579.16;;;0.39;81.21
74778;BME280;63298;53.164;8.610;2023-12-04T04:34:35;101591.56;;;0.41;81.26
74778;BME280;63298;53.164;8.610;2023-12-04T04:37:00;101602.50;;;0.50;80.83
74778;BME280;63298;53.164;8.610;2023-12-04T04:39:25;101577.13;;;0.41;80.77
74778;BME280;63298;53.164;8.610;2023-12-04T04:41:51;101592.66;;;0.49;80.75
74778;BME280;63298;53.164;8.610;2023-12-04T04:44:16;101581.41;;;0.43;81.10
74778;BME280;63298;53.164;8.610;2023-12-04T04:46:42;101577.59;;;0.36;81.43
74778;BME280;63298;53.164;8.610;2023-12-04T04:49:07;101568.47;;;0.37;81.00
74778;BME280;63298;53.164;8.610;2023-12-04T04:51:33;101560.94;;;0.31;81.72
74778;BME280;63298;53.164;8.610;2023-12-04T04:53:59;101566.47;;;0.39;81.28
74778;BME280;63298;53.164;8.610;2023-12-04T04:56:24;101564.28;;;0.43;81.15
74778;BME280;63298;53.164;8.610;2023-12-04T04:58:50;101564.97;;;0.45;81.46
74778;BME280;63298;53.164;8.610;2023-12-04T05:01:15;101573.69;;;0.49;81.41
74778;BME280;63298;53.164;8.610;2023-12-04T05:03:40;101570.63;;;0.52;80.97
74778;BME280;63298;53.164;8.610;2023-12-04T05:06:06;101566.38;;;0.49;81.58
74778;BME280;63298;53.164;8.610;2023-12-04T05:08:32;101546.44;;;0.40;81.08
74778;BME280;63298;53.164;8.610;2023-12-04T05:10:57;101554.09;;;0.45;81.61
74778;BME280;63298;53.164;8.610;2023-12-04T05:13:22;101555.69;;;0.48;81.51
74778;BME280;63298;53.164;8.610;2023-12-04T05:15:48;101548.84;;;0.43;81.78
74778;BME280;63298;53.164;8.610;2023-12-04T05:18:13;101550.00;;;0.41;81.75
74778;BME280;63298;53.164;8.610;2023-12-04T05:20:38;101549.00;;;0.42;81.57
74778;BME280;63298;53.164;8.610;2023-12-04T05:23:04;101564.28;;;0.43;81.17
74778;BME280;63298;53.164;8.610;2023-12-04T05:25:29;101551.84;;;0.40;81.89
74778;BME280;63298;53.164;8.610;2023-12-04T05:27:54;101537.44;;;0.40;81.33
74778;BME280;63298;53.164;8.610;2023-12-04T05:30:20;101548.16;;;0.41;81.81
74778;BME280;63298;53.164;8.610;2023-12-04T05:32:45;101535.91;;;0.37;81.92
74778;BME280;63298;53.164;8.610;2023-12-04T05:35:15;101542.31;;;0.36;82.55
74778;BME280;63298;53.164;8.610;2023-12-04T05:37:40;101548.00;;;0.43;81.71
74778;BME280;63298;53.164;8.610;2023-12-04T05:40:09;101540.53;;;0.45;81.28
74778;BME280;63298;53.164;8.610;2023-12-04T05:42:35;101541.41;;;0.46;81.39
74778;BME280;63298;53.164;8.610;2023-12-04T05:45:00;101542.97;;;0.48;81.79
74778;BME280;63298;53.164;8.610;2023-12-04T05:47:25;101545.69;;;0.48;81.81
74778;BME280;63298;53.164;8.610;2023-12-04T05:49:51;101538.69;;;0.46;82.00
74778;BME280;63298;53.164;8.610;2023-12-04T05:52:16;101538.69;;;0.46;81.60
74778;BME280;63298;53.164;8.610;2023-12-04T05:54:41;101531.72;;;0.43;82.23
74778;BME280;63298;53.164;8.610;2023-12-04T05:57:07;101526.81;;;0.47;81.86
74778;BME280;63298;53.164;8.610;2023-12-04T05:59:35;101534.50;;;0.51;82.10
74778;BME280;63298;53.164;8.610;2023-12-04T06:02:03;101524.50;;;0.52;81.60
74778;BME280;63298;53.164;8.610;2023-12-04T06:04:28;101517.06;;;0.54;81.94
74778;BME280;63298;53.164;8.610;2023-12-04T06:06:54;101509.06;;;0.52;81.47
74778;BME280;63298;53.164;8.610;2023-12-04T06:09:19;101510.16;;;0.59;81.43
74778;BME280;63298;53.164;8.610;2023-12-04T06:11:44;101507.38;;;0.51;81.76
74778;BME280;63298;53.164;8.610;2023-12-04T06:14:10;101507.06;;;0.54;81.82
74778;BME280;63298;53.164;8.610;2023-12-04T06:16:35;101498.75;;;0.56;81.94
74778;BME280;63298;53.164;8.610;2023-12-04T06:19:00;101495.34;;;0.54;81.84
74778;BME280;63298;53.164;8.610;2023-12-04T06:21:26;101498.75;;;0.56;82.17
74778;BME280;63298;53.164;8.610;2023-12-04T06:23:51;101500.78;;;0.54;82.20
74778;BME280;63298;53.164;8.610;2023-12-04T06:26:17;101495.03;;;0.57;82.30
74778;BME280;63298;53.164;8.610;2023-12-04T06:28:43;101501.31;;;0.57;81.94
74778;BME280;63298;53.164;8.610;2023-12-04T06:31:09;101485.19;;;0.56;81.78
74778;BME280;63298;53.164;8.610;2023-12-04T06:33:35;101489.84;;;0.63;81.79
74778;BME280;63298;53.164;8.610;2023-12-04T06:36:01;101494.09;;;0.66;82.16
74778;BME280;63298;53.164;8.610;2023-12-04T06:38:29;101494.09;;;0.66;82.20
74778;BME280;63298;53.164;8.610;2023-12-04T06:40:56;101501.56;;;0.64;83.04
74778;BME280;63298;53.164;8.610;2023-12-04T06:43:22;101491.22;;;0.67;82.18
74778;BME280;63298;53.164;8.610;2023-12-04T06:45:48;101497.19;;;0.71;82.04
74778;BME280;63298;53.164;8.610;2023-12-04T06:48:13;101479.28;;;0.60;81.68
74778;BME280;63298;53.164;8.610;2023-12-04T06:50:40;101497.19;;;0.71;81.85
74778;BME280;63298;53.164;8.610;2023-12-04T06:53:05;101489.56;;;0.74;81.50
74778;BME280;63298;53.164;8.610;2023-12-04T06:55:31;101485.00;;;0.75;81.90
74778;BME280;63298;53.164;8.610;2023-12-04T06:57:56;101486.03;;;0.74;82.05
74778;BME280;63298;53.164;8.610;2023-12-04T07:00:22;101496.91;;;0.74;82.12
74778;BME280;63298;53.164;8.610;2023-12-04T07:02:47;101484.63;;;0.70;81.96
74778;BME280;63298;53.164;8.610;2023-12-04T07:05:13;101485.66;;;0.69;81.97
74778;BME280;63298;53.164;8.610;2023-12-04T07:07:41;101482.09;;;0.68;81.95
74778;BME280;63298;53.164;8.610;2023-12-04T07:10:09;101500.00;;;0.79;81.64
74778;BME280;63298;53.164;8.610;2023-12-04T07:12:34;101492.28;;;0.74;81.91
74778;BME280;63298;53.164;8.610;2023-12-04T07:15:00;101495.22;;;0.81;82.01
74778;BME280;63298;53.164;8.610;2023-12-04T07:17:25;101499.66;;;0.82;82.04
74778;BME280;63298;53.164;8.610;2023-12-04T07:19:50;101498.47;;;0.84;81.90
74778;BME280;63298;53.164;8.610;2023-12-04T07:22:16;101475.69;;;0.77;81.92
74778;BME280;63298;53.164;8.610;2023-12-04T07:24:41;101480.66;;;0.82;82.04
74778;BME280;63298;53.164;8.610;2023-12-04T07:27:09;101487.47;;;0.86;81.44
74778;BME280;63298;53.164;8.610;2023-12-04T07:29:34;101479.31;;;0.86;81.99
74778;BME280;63298;53.164;8.610;2023-12-04T07:31:59;101479.84;;;0.90;81.68
74778;BME280;63298;53.164;8.610;2023-12-04T07:34:27;101490.88;;;0.88;81.97
74778;BME280;63298;53.164;8.610;2023-12-04T07:36:56;101471.66;;;0.81;81.68
74778;BME280;63298;53.164;8.610;2023-12-04T07:39:21;101489.56;;;0.92;81.65
74778;BME280;63298;53.164;8.610;2023-12-04T07:41:46;101472.19;;;0.85;81.27
74778;BME280;63298;53.164;8.610;2023-12-04T07:44:12;101490.94;;;0.96;81.46
74778;BME280;63298;53.164;8.610;2023-12-04T07:46:37;101491.31;;;1.01;81.50
74778;BME280;63298;53.164;8.610;2023-12-04T07:49:05;101490.59;;;0.99;81.89
74778;BME280;63298;53.164;8.610;2023-12-04T07:51:34;101490.59;;;0.99;81.45
74778;BME280;63298;53.164;8.610;2023-12-04T07:53:59;101492.16;;;1.02;81.75
74778;BME280;63298;53.164;8.610;2023-12-04T07:56:25;101472.41;;;0.92;81.66
74778;BME280;63298;53.164;8.610;2023-12-04T07:58:50;101493.19;;;1.01;81.07
74778;BME280;63298;53.164;8.610;2023-12-04T08:01:15;101487.75;;;1.01;81.21
74778;BME280;63298;53.164;8.610;2023-12-04T08:03:44;101490.78;;;0.98;81.23
74778;BME280;63298;53.164;8.610;2023-12-04T08:06:10;101488.06;;;0.98;81.32
74778;BME280;63298;53.164;8.610;2023-12-04T08:08:36;101475.28;;;0.90;81.33
74778;BME280;63298;53.164;8.610;2023-12-04T08:11:01;101487.41;;;1.04;81.49
74778;BME280;63298;53.164;8.610;2023-12-04T08:13:26;101481.97;;;1.04;81.42
74778;BME280;63298;53.164;8.610;2023-12-04T08:15:52;101486.75;;;1.02;81.08
74778;BME280;63298;53.164;8.610;2023-12-04T08:18:17;101480.78;;;0.98;81.11
74778;BME280;63298;53.164;8.610;2023-12-04T08:20:46;101474.16;;;1.01;80.92
74778;BME280;63298;53.164;8.610;2023-12-04T08:23:11;101457.50;;;0.96;80.96
74778;BME280;63298;53.164;8.610;2023-12-04T08:25:36;101447.16;;;0.99;80.82
74778;BME280;63298;53.164;8.610;2023-12-04T08:28:02;101459.56;;;1.02;80.75
74778;BME280;63298;53.164;8.610;2023-12-04T08:30:27;101452.41;;;0.93;80.70
74778;BME280;63298;53.164;8.610;2023-12-04T08:32:55;101461.09;;;1.04;80.77
74778;BME280;63298;53.164;8.610;2023-12-04T08:35:24;101454.66;;;1.05;80.28
74778;BME280;63298;53.164;8.610;2023-12-04T08:37:49;101441.41;;;1.02;80.90
74778;BME280;63298;53.164;8.610;2023-12-04T08:40:14;101449.59;;;1.10;80.79
74778;BME280;63298;53.164;8.610;2023-12-04T08:42:43;101438.19;;;0.99;80.58
74778;BME280;63298;53.164;8.610;2023-12-04T08:45:09;101433.31;;;1.10;80.57
74778;BME280;63298;53.164;8.610;2023-12-04T08:47:35;101429.44;;;1.13;80.28
74778;BME280;63298;53.164;8.610;2023-12-04T08:50:00;101439.44;;;1.12;79.80
74778;BME280;63298;53.164;8.610;2023-12-04T08:52:25;101433.16;;;1.12;79.94
74778;BME280;63298;53.164;8.610;2023-12-04T08:54:51;101428.38;;;1.14;80.10
74778;BME280;63298;53.164;8.610;2023-12-04T08:57:16;101418.19;;;1.08;79.85
74778;BME280;63298;53.164;8.610;2023-12-04T08:59:42;101412.91;;;1.06;79.99
74778;BME280;63298;53.164;8.610;2023-12-04T09:02:07;101418.38;;;1.14;79.95
74778;BME280;63298;53.164;8.610;2023-12-04T09:04:32;101416.53;;;1.15;79.72
74778;BME280;63298;53.164;8.610;2023-12-04T09:07:04;101415.50;;;1.16;79.69
74778;BME280;63298;53.164;8.610;2023-12-04T09:09:29;101415.19;;;1.19;79.61
74778;BME280;63298;53.164;8.610;2023-12-04T09:11:55;101417.41;;;1.23;79.69
74778;BME280;63298;53.164;8.610;2023-12-04T09:14:20;101420.81;;;1.25;79.34
74778;BME280;63298;53.164;8.610;2023-12-04T09:16:45;101414.75;;;1.32;79.32
74778;BME280;63298;53.164;8.610;2023-12-04T09:19:11;101422.91;;;1.32;79.27
74778;BME280;63298;53.164;8.610;2023-12-04T09:21:36;101415.91;;;1.29;78.81
74778;BME280;63298;53.164;8.610;2023-12-04T09:24:01;101404.19;;;1.28;79.36
74778;BME280;63298;53.164;8.610;2023-12-04T09:26:30;101417.81;;;1.37;79.27
74778;BME280;63298;53.164;8.610;2023-12-04T09:28:55;101420.91;;;1.42;78.92
74778;BME280;63298;53.164;8.610;2023-12-04T09:31:23;101418.19;;;1.42;79.19
74778;BME280;63298;53.164;8.610;2023-12-04T09:33:51;101415.97;;;1.45;78.77
74778;BME280;63298;53.164;8.610;2023-12-04T09:36:20;101413.25;;;1.45;78.95
74778;BME280;63298;53.164;8.610;2023-12-04T09:38:45;101406.31;;;1.43;78.58
74778;BME280;63298;53.164;8.610;2023-12-04T09:41:12;101425.69;;;1.48;78.46
74778;BME280;63298;53.164;8.610;2023-12-04T09:43:37;101429.94;;;1.50;78.09
74778;BME280;63298;53.164;8.610;2023-12-04T09:46:03;101415.84;;;1.47;78.39
74778;BME280;63298;53.164;8.610;2023-12-04T09:48:32;101410.22;;;1.48;78.38
74778;BME280;63298;53.164;8.610;2023-12-04T09:50:59;101403.75;;;1.49;78.18
74778;BME280;63298;53.164;8.610;2023-12-04T09:53:26;101394.09;;;1.47;78.37
74778;BME280;63298;53.164;8.610;2023-12-04T09:55:53;101404.81;;;1.56;78.44
74778;BME280;63298;53.164;8.610;2023-12-04T09:58:22;101398.16;;;1.51;78.38
74778;BME280;63298;53.164;8.610;2023-12-04T10:00:50;101395.66;;;1.57;78.22
74778;BME280;63298;53.164;8.610;2023-12-04T10:03:17;101390.03;;;1.59;78.32
74778;BME280;63298;53.164;8.610;2023-12-04T10:05:44;101394.13;;;1.63;78.09
74778;BME280;63298;53.164;8.610;2023-12-04T10:08:09;101384.28;;;1.62;77.49
74778;BME280;63298;53.164;8.610;2023-12-04T10:10:34;101377.47;;;1.58;77.18
74778;BME280;63298;53.164;8.610;2023-12-04T10:13:00;101379.88;;;1.69;77.48
74778;BME280;63298;53.164;8.610;2023-12-04T10:15:25;101390.09;;;1.75;78.15
74778;BME280;63298;53.164;8.610;2023-12-04T10:17:53;101391.78;;;1.76;78.16
74778;BME280;63298;53.164;8.610;2023-12-04T10:20:21;101378.50;;;1.73;77.45
74778;BME280;63298;53.164;8.610;2023-12-04T10:22:57;101358.63;;;1.64;76.94
74778;BME280;63298;53.164;8.610;2023-12-04T10:25:24;101371.75;;;1.77;77.36
74778;BME280;63298;53.164;8.610;2023-12-04T10:28:07;101367.47;;;1.74;76.83
74778;BME280;63298;53.164;8.610;2023-12-04T10:30:36;101350.63;;;1.63;76.87
74778;BME280;63298;53.164;8.610;2023-12-04T10:33:03;101364.44;;;1.78;77.71
74778;BME280;63298;53.164;8.610;2023-12-04T10:35:30;101349.66;;;1.80;77.36
74778;BME280;63298;53.164;8.610;2023-12-04T10:37:56;101341.63;;;1.79;77.18
74778;BME280;63298;53.164;8.610;2023-12-04T10:40:29;101345.56;;;1.84;76.99
74778;BME280;63298;53.164;8.610;2023-12-04T10:43:14;101339.28;;;1.84;76.93
74778;BME280;63298;53.164;8.610;2023-12-04T10:45:44;101341.66;;;1.87;77.03
74778;BME280;63298;53.164;8.610;2023-12-04T10:48:10;101340.47;;;1.89;77.02
74778;BME280;63298;53.164;8.610;2023-12-04T10:50:37;101334.00;;;1.90;77.08
74778;BME280;63298;53.164;8.610;2023-12-04T10:53:03;101326.38;;;1.94;77.14
74778;BME280;63298;53.164;8.610;2023-12-04T10:55:30;101332.81;;;1.93;76.84
74778;BME280;63298;53.164;8.610;2023-12-04T10:57:55;101320.91;;;1.94;76.64
74778;BME280;63298;53.164;8.610;2023-12-04T11:00:22;101312.44;;;1.97;77.03
74778;BME280;63298;53.164;8.610;2023-12-04T11:02:48;101316.31;;;2.02;77.00
74778;BME280;63298;53.164;8.610;2023-12-04T11:05:18;101314.63;;;1.93;75.71
74778;BME280;63298;53.164;8.610;2023-12-04T11:07:48;101306.31;;;1.95;76.50
74778;BME280;63298;53.164;8.610;2023-12-04T11:10:15;101302.41;;;1.97;75.98
74778;BME280;63298;53.164;8.610;2023-12-04T11:12:45;101299.50;;;1.99;76.52
74778;BME280;63298;53.164;8.610;2023-12-04T11:15:16;101306.28;;;2.03;76.34
74778;BME280;63298;53.164;8.610;2023-12-04T11:17:46;101283.69;;;1.94;76.29
74778;BME280;63298;53.164;8.610;2023-12-04T11:20:17;101296.25;;;2.03;76.27
74778;BME280;63298;53.164;8.610;2023-12-04T11:22:50;101287.09;;;2.04;76.17
74778;BME280;63298;53.164;8.610;2023-12-04T11:25:16;101285.22;;;2.05;76.02
74778;BME280;63298;53.164;8.610;2023-12-04T11:27:42;101283.69;;;2.10;76.05
74778;BME280;63298;53.164;8.610;2023-12-04T11:30:09;101280.81;;;2.12;76.32
74778;BME280;63298;53.164;8.610;2023-12-04T11:32:45;101284.00;;;2.07;nan
74778;BME280;63298;53.164;8.610;2023-12-04T11:35:14;101278.91;;;2.12;74.53
74778;BME280;63298;53.164;8.610;2023-12-04T11:37:50;101275.88;;;2.15;75.02
74778;BME280;63298;53.164;8.610;2023-12-04T11:40:19;101272.78;;;2.18;76.15
74778;BME280;63298;53.164;8.610;2023-12-04T11:42:48;101260.03;;;2.19;75.73
74778;BME280;63298;53.164;8.610;2023-12-04T11:45:18;101262.06;;;2.25;75.74
74778;BME280;63298;53.164;8.610;2023-12-04T11:47:54;101263.59;;;2.28;75.81
74778;BME280;63298;53.164;8.610;2023-12-04T11:50:29;101250.50;;;2.23;74.66
74778;BME280;63298;53.164;8.610;2023-12-04T11:52:57;101239.44;;;2.25;74.85
74778;BME280;63298;53.164;8.610;2023-12-04T11:55:25;101229.41;;;2.25;74.97
74778;BME280;63298;53.164;8.610;2023-12-04T11:57:51;101225.69;;;2.26;75.11
74778;BME280;63298;53.164;8.610;2023-12-04T12:00:25;101239.63;;;2.31;74.84
74778;BME280;63298;53.164;8.610;2023-12-04T12:05:19;101228.53;;;2.41;74.85
74778;BME280;63298;53.164;8.610;2023-12-04T12:07:45;101226.47;;;2.43;75.38
74778;BME280;63298;53.164;8.610;2023-12-04T12:10:13;101222.72;;;2.44;74.80
74778;BME280;63298;53.164;8.610;2023-12-04T12:12:48;101209.16;;;2.36;73.47
74778;BME280;63298;53.164;8.610;2023-12-04T12:15:13;101212.16;;;2.49;74.56
74778;BME280;63298;53.164;8.610;2023-12-04T12:17:42;101205.38;;;2.45;74.22
74778;BME280;63298;53.164;8.610;2023-12-04T12:20:12;101223.41;;;2.46;73.03
74778;BME280;63298;53.164;8.610;2023-12-04T12:22:41;101210.44;;;2.48;74.36
74778;BME280;63298;53.164;8.610;2023-12-04T12:25:15;101208.94;;;2.45;74.43
74778;BME280;63298;53.164;8.610;2023-12-04T12:27:41;101202.97;;;2.50;74.35
74778;BME280;63298;53.164;8.610;2023-12-04T12:30:09;101204.00;;;2.49;74.09
74778;BME280;63298;53.164;8.610;2023-12-04T12:32:35;101205.34;;;2.53;74.51
74778;BME280;63298;53.164;8.610;2023-12-04T12:35:02;101189.19;;;2.43;74.32
74778;BME280;63298;53.164;8.610;2023-12-04T12:37:28;101199.22;;;2.51;73.93
74778;BME280;63298;53.164;8.610;2023-12-04T12:39:57;101190.88;;;2.52;74.80
74778;BME280;63298;53.164;8.610;2023-12-04T12:42:27;101189.00;;;2.53;74.35
74778;BME280;63298;53.164;8.610;2023-12-04T12:44:53;101185.94;;;2.56;73.96
74778;BME280;63298;53.164;8.610;2023-12-04T12:47:22;101191.91;;;2.51;73.68
74778;BME280;63298;53.164;8.610;2023-12-04T12:49:47;101181.84;;;2.52;74.01
74778;BME280;63298;53.164;8.610;2023-12-04T12:52:14;101174.72;;;2.51;73.89
74778;BME280;63298;53.164;8.610;2023-12-04T12:54:43;101181.84;;;2.52;72.20
74778;BME280;63298;53.164;8.610;2023-12-04T12:57:09;101167.25;;;2.45;73.89
74778;BME280;63298;53.164;8.610;2023-12-04T12:59:35;101181.69;;;2.53;73.66